| time (UTC) | temp F | wind direction | speed knots | gust knots | rain 1hr in | rain 24hr in | rain mn in | humidity % | barometer mb |
| 20260502180526 | 65 | 343 | 8.7 | 0.0 | 0.00 | 0.00 | 0.00 | 35 | 1013.4 |
| 20260502164025 | 64 | 351 | 9.6 | 0.0 | 0.00 | 0.00 | 0.00 | 37 | 1013.3 |
| 20260502163525 | 64 | 337 | 9.6 | 0.0 | 0.00 | 0.00 | 0.00 | 37 | 1013.3 |
| 20260502163030 | 64 | 348 | 8.7 | 0.0 | 0.00 | 0.00 | 0.00 | 37 | 1013.3 |
| 20260502162527 | 65 | 346 | 7.0 | 0.0 | 0.00 | 0.00 | 0.00 | 37 | 1013.3 |
| 20260502162025 | 64 | 351 | 7.0 | 0.0 | 0.00 | 0.00 | 0.00 | 37 | 1013.1 |
| 20260502161524 | 64 | 360 | 7.8 | 0.0 | 0.00 | 0.00 | 0.00 | 40 | 1013.2 |
| 20260502161027 | 63 | 339 | 7.0 | 0.0 | 0.00 | 0.00 | 0.00 | 40 | 1013.1 |
| 20260502160528 | 63 | 339 | 6.1 | 0.0 | 0.00 | 0.00 | 0.00 | 40 | 1013.1 |
| 20260502152016 | 0 | 0.0 | 0.0 | 0.00 | 0.00 | 0.00 | 1012.9 | ||
| 20260502151517 | 0 | 0.0 | 0.0 | 0.00 | 0.00 | 0.00 | 1012.8 | ||
| 20260502151016 | 59 | 301 | 5.2 | 0.0 | 0.00 | 0.00 | 0.00 | 45 | 1012.8 |
| 20260502150513 | 59 | 301 | 6.1 | 0.0 | 0.00 | 0.00 | 0.00 | 45 | 1012.7 |
| 20260502130509 | 52 | 301 | 7.8 | 0.0 | 0.00 | 0.00 | 0.00 | 52 | 1012.7 |
| 20260502123507 | 51 | 297 | 6.1 | 0.0 | 0.00 | 0.00 | 0.00 | 51 | 1012.7 |
| 20260502123012 | 52 | 290 | 6.1 | 0.0 | 0.00 | 0.00 | 0.00 | 50 | 1012.7 |
| 20260502122506 | 52 | 294 | 6.1 | 0.0 | 0.00 | 0.00 | 0.00 | 50 | 1012.6 |
| 20260502122006 | 52 | 283 | 6.1 | 0.0 | 0.00 | 0.00 | 0.00 | 49 | 1012.7 |
| 20260502121507 | 52 | 291 | 6.1 | 0.0 | 0.00 | 0.00 | 0.00 | 49 | 1012.7 |
| 20260502121006 | 52 | 280 | 6.1 | 0.0 | 0.00 | 0.00 | 0.00 | 48 | 1012.6 |
| 20260502120506 | 52 | 287 | 5.2 | 0.0 | 0.00 | 0.00 | 0.00 | 48 | 1012.5 |
| 20260502115506 | 51 | 264 | 3.5 | 0.0 | 0.00 | 0.00 | 0.00 | 49 | 1012.4 |
| 20260502115007 | 51 | 265 | 4.3 | 0.0 | 0.00 | 0.00 | 0.00 | 48 | 1012.4 |
| 20260502114506 | 52 | 261 | 5.2 | 0.0 | 0.00 | 0.00 | 0.00 | 48 | 1012.3 |
| 20260502114006 | 52 | 266 | 4.3 | 0.0 | 0.00 | 0.00 | 0.00 | 47 | 1012.2 |
| 20260502113506 | 51 | 277 | 3.5 | 0.0 | 0.00 | 0.00 | 0.00 | 48 | 1012.1 |
| 20260502113005 | 51 | 281 | 4.3 | 0.0 | 0.00 | 0.00 | 0.00 | 48 | 1012.2 |
| 20260502112506 | 50 | 276 | 5.2 | 0.0 | 0.00 | 0.00 | 0.00 | 49 | 1012.2 |
| 20260502112008 | 50 | 266 | 6.1 | 0.0 | 0.00 | 0.00 | 0.00 | 49 | 1012.1 |
| 20260502111505 | 50 | 242 | 7.0 | 0.0 | 0.00 | 0.00 | 0.00 | 50 | 1012.1 |
| 20260502111005 | 50 | 252 | 7.0 | 0.0 | 0.00 | 0.00 | 0.00 | 50 | 1012.1 |
| 20260502110504 | 49 | 244 | 6.1 | 0.0 | 0.00 | 0.00 | 0.00 | 50 | 1012.2 |
| 20260502110013 | 49 | 259 | 6.1 | 0.0 | 0.00 | 0.00 | 0.00 | 50 | 1012.4 |
| 20260502105507 | 49 | 248 | 6.1 | 0.0 | 0.00 | 0.00 | 0.00 | 50 | 1012.4 |
| 20260502105003 | 49 | 258 | 6.1 | 0.0 | 0.00 | 0.00 | 0.00 | 49 | 1012.6 |
| 20260502104503 | 49 | 265 | 6.1 | 0.0 | 0.00 | 0.00 | 0.00 | 48 | 1012.5 |
| 20260502104003 | 49 | 257 | 6.1 | 0.0 | 0.00 | 0.00 | 0.00 | 48 | 1012.4 |
| 20260502103507 | 49 | 260 | 6.1 | 0.0 | 0.00 | 0.00 | 0.00 | 48 | 1012.4 |
| 20260502103002 | 49 | 252 | 6.1 | 0.0 | 0.00 | 0.00 | 0.00 | 48 | 1012.4 |
| 20260502102502 | 50 | 279 | 7.0 | 0.0 | 0.00 | 0.00 | 0.00 | 47 | 1012.2 |
| 20260502102002 | 50 | 254 | 7.8 | 0.0 | 0.00 | 0.00 | 0.00 | 46 | 1012.4 |
| 20260502101500 | 51 | 244 | 7.8 | 0.0 | 0.00 | 0.00 | 0.00 | 45 | 1012.2 |
| 20260502101100 | 51 | 227 | 7.8 | 0.0 | 0.00 | 0.00 | 0.00 | 45 | 1012.2 |
| 20260502100600 | 51 | 242 | 6.1 | 0.0 | 0.00 | 0.00 | 0.00 | 45 | 1012.3 |
| 20260502100112 | 51 | 231 | 6.1 | 0.0 | 0.00 | 0.00 | 0.00 | 45 | 1012.2 |
| 20260502091053 | 49 | 238 | 4.3 | 0.0 | 0.00 | 0.00 | 0.00 | 46 | 1012.7 |
| 20260502090557 | 49 | 232 | 3.5 | 0.0 | 0.00 | 0.00 | 0.00 | 46 | 1012.7 |
| 20260502071044 | 49 | 180 | 2.6 | 0.0 | 0.00 | 0.00 | 0.00 | 43 | 1013.9 |
| 20260502070544 | 49 | 175 | 2.6 | 0.0 | 0.00 | 0.00 | 0.00 | 42 | 1013.9 |
| 20260502070047 | 49 | 209 | 2.6 | 0.0 | 0.00 | 0.00 | 0.00 | 42 | 1013.9 |
| 20260502065042 | 49 | 202 | 2.6 | 0.0 | 0.00 | 0.00 | 0.00 | 41 | 1014.1 |
| 20260502064612 | 49 | 205 | 3.5 | 0.0 | 0.00 | 0.00 | 0.00 | 41 | 1014.2 |
| 20260502064042 | 49 | 202 | 3.5 | 0.0 | 0.00 | 0.00 | 0.00 | 41 | 1014.2 |
| 20260502063542 | 49 | 206 | 3.5 | 0.0 | 0.00 | 0.00 | 0.00 | 42 | 1014.2 |
| 20260502063052 | 48 | 179 | 3.5 | 0.0 | 0.00 | 0.00 | 0.00 | 42 | 1014.2 |
| 20260502062540 | 48 | 179 | 3.5 | 0.0 | 0.00 | 0.00 | 0.00 | 41 | 1014.3 |
| 20260502062040 | 48 | 173 | 2.6 | 0.0 | 0.00 | 0.00 | 0.00 | 41 | 1014.4 |
| 20260502061542 | 48 | 187 | 1.7 | 0.0 | 0.00 | 0.00 | 0.00 | 42 | 1014.5 |
| 20260502061040 | 48 | 196 | 1.7 | 0.0 | 0.00 | 0.00 | 0.00 | 42 | 1014.5 |
| 20260502060542 | 48 | 193 | 0.9 | 0.0 | 0.00 | 0.00 | 0.00 | 41 | 1014.6 |
| 20260502060044 | 48 | 207 | 1.7 | 0.0 | 0.00 | 0.00 | 0.00 | 40 | 1014.7 |
| 20260502055037 | 49 | 221 | 2.6 | 0.0 | 0.00 | 0.00 | 0.00 | 39 | 1014.8 |
| 20260502054538 | 49 | 195 | 3.5 | 0.0 | 0.00 | 0.00 | 0.00 | 39 | 1014.8 |
| 20260502054037 | 50 | 204 | 4.3 | 0.0 | 0.00 | 0.00 | 0.00 | 39 | 1014.8 |
| 20260502053536 | 50 | 196 | 4.3 | 0.0 | 0.00 | 0.00 | 0.00 | 39 | 1014.8 |
| 20260502053036 | 49 | 211 | 4.3 | 0.0 | 0.00 | 0.00 | 0.00 | 38 | 1014.9 |
| 20260502052537 | 49 | 210 | 4.3 | 0.0 | 0.00 | 0.00 | 0.00 | 38 | 1015.0 |
| 20260502052035 | 49 | 206 | 4.3 | 0.0 | 0.00 | 0.00 | 0.00 | 38 | 1015.0 |
| 20260502051535 | 49 | 202 | 4.3 | 0.0 | 0.00 | 0.00 | 0.00 | 38 | 1015.1 |
| 20260502051035 | 49 | 207 | 3.5 | 0.0 | 0.00 | 0.00 | 0.00 | 39 | 1015.2 |
| 20260502050534 | 48 | 231 | 3.5 | 0.0 | 0.00 | 0.00 | 0.00 | 40 | 1015.2 |
| 20260502050034 | 48 | 205 | 4.3 | 0.0 | 0.00 | 0.00 | 0.00 | 40 | 1015.2 |
| 20260502045031 | 47 | 209 | 4.3 | 0.0 | 0.00 | 0.00 | 0.00 | 41 | 1015.4 |
| 20260502044532 | 47 | 220 | 3.5 | 0.0 | 0.00 | 0.00 | 0.00 | 41 | 1015.4 |
| 20260502044031 | 47 | 215 | 3.5 | 0.0 | 0.00 | 0.00 | 0.00 | 42 | 1015.4 |
| 20260502043531 | 46 | 215 | 3.5 | 0.0 | 0.00 | 0.00 | 0.00 | 42 | 1015.5 |
| 20260502043034 | 47 | 214 | 3.5 | 0.0 | 0.00 | 0.00 | 0.00 | 42 | 1015.5 |
| 20260502042530 | 47 | 209 | 3.5 | 0.0 | 0.00 | 0.00 | 0.00 | 41 | 1015.6 |
| 20260502042029 | 47 | 204 | 3.5 | 0.0 | 0.00 | 0.00 | 0.00 | 41 | 1015.7 |
| 20260502041534 | 47 | 200 | 3.5 | 0.0 | 0.00 | 0.00 | 0.00 | 41 | 1015.8 |
| 20260502041027 | 46 | 198 | 3.5 | 0.0 | 0.00 | 0.00 | 0.00 | 42 | 1015.8 |
| 20260502040531 | 46 | 205 | 2.6 | 0.0 | 0.00 | 0.00 | 0.00 | 42 | 1015.8 |
| 20260502040027 | 46 | 206 | 1.7 | 0.0 | 0.00 | 0.00 | 0.00 | 42 | 1015.8 |
| 20260502035028 | 46 | 214 | 2.6 | 0.0 | 0.00 | 0.00 | 0.00 | 42 | 1016.0 |
| 20260502034526 | 46 | 207 | 3.5 | 0.0 | 0.00 | 0.00 | 0.00 | 42 | 1016.1 |
| 20260502034027 | 46 | 209 | 3.5 | 0.0 | 0.00 | 0.00 | 0.00 | 42 | 1016.1 |
| 20260502033527 | 46 | 212 | 2.6 | 0.0 | 0.00 | 0.00 | 0.00 | 41 | 1016.1 |
| 20260502033029 | 46 | 210 | 2.6 | 0.0 | 0.00 | 0.00 | 0.00 | 41 | 1016.2 |
| 20260502032525 | 46 | 209 | 2.6 | 0.0 | 0.00 | 0.00 | 0.00 | 41 | 1016.2 |
| 20260502032024 | 46 | 220 | 2.6 | 0.0 | 0.00 | 0.00 | 0.00 | 40 | 1016.3 |
| 20260502031523 | 47 | 221 | 2.6 | 0.0 | 0.00 | 0.00 | 0.00 | 40 | 1016.3 |
| 20260502031022 | 47 | 221 | 2.6 | 0.0 | 0.00 | 0.00 | 0.00 | 39 | 1016.4 |
| 20260502030521 | 48 | 219 | 2.6 | 0.0 | 0.00 | 0.00 | 0.00 | 39 | 1016.3 |
| 20260502030021 | 48 | 214 | 2.6 | 0.0 | 0.00 | 0.00 | 0.00 | 38 | 1016.3 |
| 20260502025023 | 47 | 214 | 2.6 | 0.0 | 0.00 | 0.00 | 0.00 | 39 | 1016.3 |
| 20260502024519 | 48 | 214 | 2.6 | 0.0 | 0.00 | 0.00 | 0.00 | 38 | 1016.3 |
| 20260502024017 | 49 | 214 | 2.6 | 0.0 | 0.00 | 0.00 | 0.00 | 36 | 1016.2 |
| 20260502023516 | 50 | 213 | 2.6 | 0.0 | 0.00 | 0.00 | 0.00 | 36 | 1016.2 |
| 20260502023014 | 50 | 212 | 2.6 | 0.0 | 0.00 | 0.00 | 0.00 | 35 | 1016.2 |
| 20260502022514 | 51 | 211 | 2.6 | 0.0 | 0.00 | 0.00 | 0.00 | 34 | 1016.2 |
| 20260502022015 | 52 | 211 | 1.7 | 0.0 | 0.00 | 0.00 | 0.00 | 34 | 1016.2 |
| 20260502021510 | 53 | 211 | 0.9 | 0.0 | 0.00 | 0.00 | 0.00 | 33 | 1016.2 |
| 20260502021009 | 53 | 211 | 1.7 | 0.0 | 0.00 | 0.00 | 0.00 | 33 | 1016.2 |
| 20260502020508 | 54 | 211 | 1.7 | 0.0 | 0.00 | 0.00 | 0.00 | 32 | 1016.2 |
| 20260502020006 | 55 | 211 | 1.7 | 0.0 | 0.00 | 0.00 | 0.00 | 31 | 1016.2 |
| 20260502015005 | 58 | 209 | 2.6 | 0.0 | 0.00 | 0.00 | 0.00 | 29 | 1016.3 |
| 20260502014504 | 59 | 203 | 2.6 | 0.0 | 0.00 | 0.00 | 0.00 | 28 | 1016.3 |
| 20260502014002 | 60 | 210 | 3.5 | 0.0 | 0.00 | 0.00 | 0.00 | 27 | 1016.3 |
| 20260502013500 | 61 | 217 | 2.6 | 0.0 | 0.00 | 0.00 | 0.00 | 27 | 1016.3 |
| 20260502013101 | 61 | 213 | 2.6 | 0.0 | 0.00 | 0.00 | 0.00 | 26 | 1016.4 |
| 20260502012558 | 62 | 214 | 2.6 | 0.0 | 0.00 | 0.00 | 0.00 | 25 | 1016.4 |
| 20260502012059 | 63 | 220 | 2.6 | 0.0 | 0.00 | 0.00 | 0.00 | 25 | 1016.3 |
| 20260502011602 | 63 | 219 | 3.5 | 0.0 | 0.00 | 0.00 | 0.00 | 23 | 1016.4 |
| 20260502011055 | 64 | 222 | 4.3 | 0.0 | 0.00 | 0.00 | 0.00 | 24 | 1016.5 |
| 20260502010552 | 64 | 146 | 4.3 | 0.0 | 0.00 | 0.00 | 0.00 | 23 | 1016.5 |
| 20260502010104 | 65 | 221 | 5.2 | 0.0 | 0.00 | 0.00 | 0.00 | 23 | 1016.6 |
| 20260502005051 | 65 | 210 | 5.2 | 0.0 | 0.00 | 0.00 | 0.00 | 22 | 1016.6 |
| 20260502004550 | 65 | 229 | 4.3 | 0.0 | 0.00 | 0.00 | 0.00 | 22 | 1016.7 |
| 20260502004048 | 65 | 226 | 4.3 | 0.0 | 0.00 | 0.00 | 0.00 | 22 | 1016.8 |
| 20260502003548 | 66 | 238 | 4.3 | 0.0 | 0.00 | 0.00 | 0.00 | 22 | 1016.8 |
| 20260502003048 | 66 | 230 | 4.3 | 0.0 | 0.00 | 0.00 | 0.00 | 22 | 1016.8 |
| 20260502002547 | 66 | 207 | 4.3 | 0.0 | 0.00 | 0.00 | 0.00 | 22 | 1016.8 |
| 20260502002046 | 66 | 235 | 4.3 | 0.0 | 0.00 | 0.00 | 0.00 | 21 | 1016.8 |
| 20260502001546 | 66 | 223 | 5.2 | 0.0 | 0.00 | 0.00 | 0.00 | 22 | 1016.8 |
| 20260502001045 | 66 | 221 | 4.3 | 0.0 | 0.00 | 0.00 | 0.00 | 22 | 1016.9 |
| 20260502000546 | 66 | 235 | 5.2 | 0.0 | 0.00 | 0.00 | 0.00 | 22 | 1016.9 |
| 20260502000045 | 66 | 227 | 6.1 | 0.0 | 0.00 | 0.00 | 0.00 | 23 | 1016.9 |
| 20260501235044 | 66 | 221 | 5.2 | 0.0 | 0.00 | 0.00 | 0.00 | 23 | 1016.9 |
| 20260501234544 | 67 | 177 | 5.2 | 0.0 | 0.00 | 0.00 | 0.00 | 22 | 1016.9 |
| 20260501234045 | 67 | 210 | 4.3 | 0.0 | 0.00 | 0.00 | 0.00 | 23 | 1017.0 |
| 20260501233546 | 67 | 205 | 3.5 | 0.0 | 0.00 | 0.00 | 0.00 | 24 | 1017.0 |
| 20260501233043 | 67 | 204 | 3.5 | 0.0 | 0.00 | 0.00 | 0.00 | 22 | 1017.1 |
| 20260501232542 | 67 | 202 | 4.3 | 0.0 | 0.00 | 0.00 | 0.00 | 23 | 1017.0 |
| 20260501232045 | 67 | 180 | 3.5 | 0.0 | 0.00 | 0.00 | 0.00 | 23 | 1017.1 |
| 20260501231541 | 67 | 205 | 4.3 | 0.0 | 0.00 | 0.00 | 0.00 | 22 | 1017.1 |
| 20260501231041 | 67 | 196 | 4.3 | 0.0 | 0.00 | 0.00 | 0.00 | 22 | 1017.2 |
| 20260501230541 | 67 | 218 | 3.5 | 0.0 | 0.00 | 0.00 | 0.00 | 23 | 1017.2 |
| 20260501230041 | 66 | 242 | 4.3 | 0.0 | 0.00 | 0.00 | 0.00 | 22 | 1017.2 |
| 20260501225040 | 67 | 228 | 3.5 | 0.0 | 0.00 | 0.00 | 0.00 | 22 | 1017.0 |
| 20260501224541 | 67 | 205 | 3.5 | 0.0 | 0.00 | 0.00 | 0.00 | 23 | 1017.4 |
| 20260501224039 | 67 | 157 | 3.5 | 0.0 | 0.00 | 0.00 | 0.00 | 24 | 1017.5 |
| 20260501223539 | 67 | 220 | 5.2 | 0.0 | 0.00 | 0.00 | 0.00 | 23 | 1017.5 |
| 20260501223038 | 67 | 175 | 5.2 | 0.0 | 0.00 | 0.00 | 0.00 | 24 | 1017.6 |
| 20260501222538 | 66 | 175 | 5.2 | 0.0 | 0.00 | 0.00 | 0.00 | 23 | 1017.5 |
| 20260501222037 | 66 | 251 | 4.3 | 0.0 | 0.00 | 0.00 | 0.00 | 23 | 1017.7 |
| 20260501221537 | 67 | 153 | 3.5 | 0.0 | 0.00 | 0.00 | 0.00 | 25 | 1017.7 |
| 20260501221035 | 66 | 226 | 3.5 | 0.0 | 0.00 | 0.00 | 0.00 | 24 | 1017.8 |
| 20260501220538 | 66 | 233 | 12.2 | 0.0 | 0.00 | 0.00 | 0.00 | 24 | 1017.9 |
| 20260501220038 | 66 | 233 | 5.2 | 0.0 | 0.00 | 0.00 | 0.00 | 24 | 1018.0 |
| 20260501215034 | 66 | 267 | 5.2 | 0.0 | 0.00 | 0.00 | 0.00 | 23 | 1018.2 |
| 20260501214535 | 66 | 267 | 4.3 | 0.0 | 0.00 | 0.00 | 0.00 | 24 | 1018.2 |
| 20260501214032 | 66 | 217 | 4.3 | 0.0 | 0.00 | 0.00 | 0.00 | 25 | 1018.3 |
| 20260501213532 | 65 | 190 | 6.1 | 0.0 | 0.00 | 0.00 | 0.00 | 23 | 1018.3 |
| 20260501213036 | 66 | 158 | 5.2 | 0.0 | 0.00 | 0.00 | 0.00 | 25 | 1018.3 |
| 20260501212530 | 66 | 173 | 4.3 | 0.0 | 0.00 | 0.00 | 0.00 | 26 | 1018.3 |
| 20260501212029 | 65 | 223 | 3.5 | 0.0 | 0.00 | 0.00 | 0.00 | 23 | 1018.5 |
| 20260501211532 | 65 | 208 | 4.3 | 0.0 | 0.00 | 0.00 | 0.00 | 23 | 1018.5 |
| 20260501211028 | 65 | 217 | 3.5 | 0.0 | 0.00 | 0.00 | 0.00 | 25 | 1018.6 |
| 20260501210529 | 64 | 155 | 5.2 | 0.0 | 0.00 | 0.00 | 0.00 | 24 | 1018.6 |
| 20260501210027 | 64 | 155 | 6.1 | 0.0 | 0.00 | 0.00 | 0.00 | 24 | 1018.6 |
| 20260501205027 | 64 | 153 | 7.0 | 0.0 | 0.00 | 0.00 | 0.00 | 25 | 1018.7 |
| 20260501204540 | 64 | 171 | 7.0 | 0.0 | 0.00 | 0.00 | 0.00 | 25 | 1018.8 |
| 20260501204026 | 64 | 101 | 5.2 | 0.0 | 0.00 | 0.00 | 0.00 | 25 | 1018.8 |
| 20260501203525 | 64 | 136 | 5.2 | 0.0 | 0.00 | 0.00 | 0.00 | 25 | 1018.8 |
| 20260501203026 | 64 | 161 | 6.1 | 0.0 | 0.00 | 0.00 | 0.00 | 26 | 1019.0 |
| 20260501202524 | 64 | 130 | 4.3 | 0.0 | 0.00 | 0.00 | 0.00 | 27 | 1018.9 |
| 20260501202025 | 64 | 156 | 3.5 | 0.0 | 0.00 | 0.00 | 0.00 | 26 | 1019.0 |
| 20260501201523 | 64 | 248 | 2.6 | 0.0 | 0.00 | 0.00 | 0.00 | 26 | 1019.0 |
| 20260501201022 | 64 | 284 | 3.5 | 0.0 | 0.00 | 0.00 | 0.00 | 25 | 1019.1 |
| 20260501200522 | 64 | 212 | 5.2 | 0.0 | 0.00 | 0.00 | 0.00 | 26 | 1019.2 |
| 20260501200021 | 63 | 197 | 5.2 | 0.0 | 0.00 | 0.00 | 0.00 | 28 | 1019.3 |
| 20260501195021 | 63 | 142 | 5.2 | 0.0 | 0.00 | 0.00 | 0.00 | 27 | 1019.3 |
| 20260501194525 | 63 | 137 | 4.3 | 0.0 | 0.00 | 0.00 | 0.00 | 28 | 1019.4 |
| 20260501194020 | 63 | 207 | 4.3 | 0.0 | 0.00 | 0.00 | 0.00 | 27 | 1019.3 |
| 20260501193520 | 63 | 134 | 4.3 | 0.0 | 0.00 | 0.00 | 0.00 | 26 | 1019.2 |
| 20260501193019 | 63 | 167 | 5.2 | 0.0 | 0.00 | 0.00 | 0.00 | 28 | 1019.4 |
| 20260501192519 | 63 | 145 | 4.3 | 0.0 | 0.00 | 0.00 | 0.00 | 27 | 1019.4 |
| 20260501192018 | 62 | 111 | 4.3 | 0.0 | 0.00 | 0.00 | 0.00 | 27 | 1019.5 |
| 20260501191523 | 62 | 169 | 5.2 | 0.0 | 0.00 | 0.00 | 0.00 | 30 | 1019.5 |
| 20260501191018 | 62 | 172 | 5.2 | 0.0 | 0.00 | 0.00 | 0.00 | 27 | 1019.6 |
| 20260501190518 | 62 | 262 | 0.9 | 0.0 | 0.00 | 0.00 | 0.00 | 28 | 1019.7 |
| 20260501190020 | 62 | 262 | 3.5 | 0.0 | 0.00 | 0.00 | 0.00 | 28 | 1019.7 |
| 20260501185016 | 62 | 152 | 4.3 | 0.0 | 0.00 | 0.00 | 0.00 | 29 | 1019.8 |
| 20260501184533 | 62 | 192 | 7.0 | 0.0 | 0.00 | 0.00 | 0.00 | 30 | 1019.8 |
| 20260501184015 | 61 | 156 | 6.1 | 0.0 | 0.00 | 0.00 | 0.00 | 29 | 1019.8 |
| 20260501183516 | 61 | 126 | 3.5 | 0.0 | 0.00 | 0.00 | 0.00 | 29 | 1019.8 |
| 20260501183014 | 61 | 148 | 5.2 | 0.0 | 0.00 | 0.00 | 0.00 | 29 | 1019.9 |
| 20260501182513 | 61 | 212 | 4.3 | 0.0 | 0.00 | 0.00 | 0.00 | 28 | 1020.0 |
| 20260501182020 | 60 | 115 | 4.3 | 0.0 | 0.00 | 0.00 | 0.00 | 30 | 1020.0 |
| 20260501181514 | 60 | 70 | 7.8 | 0.0 | 0.00 | 0.00 | 0.00 | 28 | 1020.1 |
| 20260501181013 | 61 | 148 | 7.0 | 0.0 | 0.00 | 0.00 | 0.00 | 30 | 1020.0 |